Time,TemperatureF,DewpointF,PressureIn,WindDirection,WindDirectionDegrees,WindSpeedMPH,WindSpeedGustMPH,Humidity,HourlyPrecipIn,Conditions,Clouds,dailyrainin,SolarRadiationWatts/m^2,SoftwareType,DateUTC
2013-02-24 00:01:00,3.0,-3.0,-100.00,SSE,160,0.0,2.0,77,0.00,,,0.13,0.000000,,2013-02-24 07:01:00,
2013-02-24 01:01:00,-1.0,-7.0,-100.00,South,183,0.0,2.0,75,0.00,,,0.13,0.000000,,2013-02-24 08:01:00,
2013-02-24 02:01:00,-3.0,-9.0,-100.00,South,182,0.0,2.0,75,-99.99,,,0.13,0.000000,,2013-02-24 09:01:00,
2013-02-24 02:52:00,-5.0,-12.0,-100.00,SE,138,0.0,3.0,72,-99.99,,,0.12,0.000000,,2013-02-24 09:52:00,
2013-02-24 03:01:00,-5.0,-12.0,-100.00,SE,138,0.0,3.0,72,-99.99,,,0.12,0.000000,,2013-02-24 10:01:00,
2013-02-24 04:01:00,-7.0,-13.0,-100.00,South,181,0.0,1.0,73,-99.99,,,0.12,0.000000,,2013-02-24 11:01:00,
2013-02-24 05:01:00,-9.0,-16.0,-100.00,South,170,0.0,0.0,70,-99.99,,,0.11,0.000000,,2013-02-24 12:01:00,
2013-02-24 06:08:00,-10.0,-17.0,-100.00,SSE,166,0.0,0.0,70,-99.99,,,0.11,0.000000,,2013-02-24 13:08:00,
2013-02-24 07:03:00,-12.0,-20.0,-100.00,South,181,0.0,0.0,68,-99.99,,,0.11,0.000000,,2013-02-24 14:03:00,
2013-02-24 07:54:00,-9.0,-16.0,-100.00,SSE,168,0.0,2.0,72,-99.99,,,0.10,1.000000,,2013-02-24 14:54:00,
2013-02-24 08:02:00,-9.0,-16.0,-100.00,SSE,168,0.0,2.0,72,-99.99,,,0.10,1.000000,,2013-02-24 15:02:00,
2013-02-24 09:01:00,-3.0,-9.0,-100.00,South,183,0.0,2.0,76,-99.99,,,0.10,8.000000,,2013-02-24 16:01:00,
2013-02-24 09:11:00,-3.0,-9.0,-100.00,South,183,0.0,2.0,76,-99.99,,,0.10,8.000000,,2013-02-24 16:11:00,
2013-02-24 09:21:00,-3.0,-9.0,-100.00,South,183,0.0,2.0,76,-99.99,,,0.10,8.000000,,2013-02-24 16:21:00,
2013-02-24 09:31:00,-3.0,-9.0,-100.00,South,183,0.0,2.0,76,-99.99,,,0.10,8.000000,,2013-02-24 16:31:00,
2013-02-24 10:01:00,10.0,5.0,-100.00,South,189,1.0,2.0,81,0.00,,,0.07,19.000000,,2013-02-24 17:01:00,
2013-02-24 10:11:00,10.0,5.0,-100.00,South,189,1.0,2.0,81,0.00,,,0.07,19.000000,,2013-02-24 17:11:00,
2013-02-24 10:21:00,10.0,5.0,-100.00,South,189,1.0,2.0,81,0.00,,,0.07,19.000000,,2013-02-24 17:21:00,
2013-02-24 10:31:00,10.0,5.0,-100.00,South,189,1.0,2.0,81,0.00,,,0.07,19.000000,,2013-02-24 17:31:00,
2013-02-24 11:01:00,25.0,9.0,-100.00,North,352,2.0,4.0,51,0.00,,,0.05,135.000000,,2013-02-24 18:01:00,
2013-02-24 11:31:00,25.0,9.0,-100.00,North,352,2.0,4.0,51,0.00,,,0.05,135.000000,,2013-02-24 18:31:00,
2013-02-24 11:52:00,25.0,7.0,-100.00,NW,316,2.0,6.0,45,0.00,,,0.04,48.000000,,2013-02-24 18:52:00,
2013-02-24 12:01:00,25.0,7.0,-100.00,NW,316,2.0,6.0,45,0.00,,,0.04,48.000000,,2013-02-24 19:01:00,
2013-02-24 12:11:00,25.0,7.0,-100.00,NW,316,2.0,6.0,45,0.00,,,0.04,48.000000,,2013-02-24 19:11:00,
2013-02-24 12:22:00,25.0,7.0,-100.00,NW,316,2.0,6.0,45,0.00,,,0.04,48.000000,,2013-02-24 19:22:00,
2013-02-24 12:31:00,25.0,7.0,-100.00,NW,316,2.0,6.0,45,0.00,,,0.04,48.000000,,2013-02-24 19:31:00,
2013-02-24 13:02:00,26.0,7.0,-100.00,NNW,343,2.0,5.0,44,0.00,,,0.04,84.000000,,2013-02-24 20:02:00,
2013-02-24 13:11:00,26.0,7.0,-100.00,NNW,343,2.0,5.0,44,0.00,,,0.04,84.000000,,2013-02-24 20:11:00,
2013-02-24 13:21:00,26.0,7.0,-100.00,NNW,343,2.0,5.0,44,0.00,,,0.04,84.000000,,2013-02-24 20:21:00,
2013-02-24 13:31:00,26.0,7.0,-100.00,NNW,343,2.0,5.0,44,0.00,,,0.04,84.000000,,2013-02-24 20:31:00,
2013-02-24 13:52:00,31.0,10.0,-100.00,SSW,213,3.0,6.0,41,0.00,,,0.04,123.000000,,2013-02-24 20:52:00,
2013-02-24 14:01:00,31.0,10.0,-100.00,SSW,213,3.0,6.0,41,0.00,,,0.04,123.000000,,2013-02-24 21:01:00,
2013-02-24 14:11:00,31.0,10.0,-100.00,SSW,213,3.0,6.0,41,0.00,,,0.04,123.000000,,2013-02-24 21:11:00,
2013-02-24 14:21:00,31.0,10.0,-100.00,SSW,213,3.0,6.0,41,0.00,,,0.04,123.000000,,2013-02-24 21:21:00,
2013-02-24 14:31:00,31.0,10.0,-100.00,SSW,213,3.0,6.0,41,0.00,,,0.04,123.000000,,2013-02-24 21:31:00,
2013-02-24 15:01:00,28.0,10.0,-100.00,SW,221,4.0,9.0,47,0.00,,,0.01,461.000000,,2013-02-24 22:01:00,
2013-02-24 15:11:00,28.0,10.0,-100.00,SW,221,4.0,9.0,47,0.00,,,0.01,461.000000,,2013-02-24 22:11:00,
2013-02-24 15:21:00,28.0,10.0,-100.00,SW,221,4.0,9.0,47,0.00,,,0.01,461.000000,,2013-02-24 22:21:00,
2013-02-24 15:31:00,28.0,10.0,-100.00,SW,221,4.0,9.0,47,0.00,,,0.01,461.000000,,2013-02-24 22:31:00,
2013-02-24 16:02:00,26.0,6.0,-100.00,WSW,258,4.0,9.0,41,0.00,,,0.00,185.000000,,2013-02-24 23:02:00,
2013-02-24 16:11:00,26.0,6.0,-100.00,WSW,258,4.0,9.0,41,0.00,,,0.00,185.000000,,2013-02-24 23:11:00,
2013-02-24 16:21:00,26.0,6.0,-100.00,WSW,258,4.0,9.0,41,0.00,,,0.00,185.000000,,2013-02-24 23:21:00,
2013-02-24 16:31:00,26.0,6.0,-100.00,WSW,258,4.0,9.0,41,0.00,,,0.00,185.000000,,2013-02-24 23:31:00,
2013-02-24 17:01:00,25.0,8.0,-100.00,SW,222,5.0,12.0,47,0.00,,,0.00,104.000000,,2013-02-25 00:01:00,
2013-02-24 17:11:00,25.0,8.0,-100.00,SW,222,5.0,12.0,47,0.00,,,0.00,104.000000,,2013-02-25 00:11:00,
2013-02-24 17:21:00,25.0,8.0,-100.00,SW,222,5.0,12.0,47,0.00,,,0.00,104.000000,,2013-02-25 00:21:00,
2013-02-24 17:31:00,25.0,8.0,-100.00,SW,222,5.0,12.0,47,0.00,,,0.00,104.000000,,2013-02-25 00:31:00,
2013-02-24 18:01:00,22.0,6.0,-100.00,WSW,237,4.0,10.0,49,0.00,,,0.00,24.000000,,2013-02-25 01:01:00,
2013-02-24 18:11:00,22.0,6.0,-100.00,WSW,237,4.0,10.0,49,0.00,,,0.00,24.000000,,2013-02-25 01:11:00,
2013-02-24 18:21:00,22.0,6.0,-100.00,WSW,237,4.0,10.0,49,0.00,,,0.00,24.000000,,2013-02-25 01:21:00,
2013-02-24 18:31:00,22.0,6.0,-100.00,WSW,237,4.0,10.0,49,0.00,,,0.00,24.000000,,2013-02-25 01:31:00,
2013-02-24 19:01:00,17.0,6.0,-100.00,SW,214,3.0,12.0,60,0.00,,,0.00,2.000000,,2013-02-25 02:01:00,
2013-02-24 19:11:00,17.0,6.0,-100.00,SW,214,3.0,12.0,60,0.00,,,0.00,2.000000,,2013-02-25 02:11:00,
2013-02-24 19:21:00,17.0,6.0,-100.00,SW,214,3.0,12.0,60,0.00,,,0.00,2.000000,,2013-02-25 02:21:00,
2013-02-24 19:31:00,17.0,6.0,-100.00,SW,214,3.0,12.0,60,0.00,,,0.00,2.000000,,2013-02-25 02:31:00,
2013-02-24 20:01:00,16.0,7.0,-100.00,SW,217,4.0,14.0,68,0.00,,,0.00,0.000000,,2013-02-25 03:01:00,
2013-02-24 20:11:00,16.0,7.0,-100.00,SW,217,4.0,14.0,68,0.00,,,0.00,0.000000,,2013-02-25 03:11:00,
2013-02-24 20:21:00,16.0,7.0,-100.00,SW,217,4.0,14.0,68,0.00,,,0.00,0.000000,,2013-02-25 03:21:00,
2013-02-24 20:31:00,16.0,7.0,-100.00,SW,217,4.0,14.0,68,0.00,,,0.00,0.000000,,2013-02-25 03:31:00,
2013-02-24 21:01:00,14.0,7.0,-100.00,SSW,209,4.0,15.0,73,0.00,,,0.00,0.000000,,2013-02-25 04:01:00,
2013-02-24 21:11:00,14.0,7.0,-100.00,SSW,209,4.0,15.0,73,0.00,,,0.00,0.000000,,2013-02-25 04:11:00,
2013-02-24 21:21:00,14.0,7.0,-100.00,SSW,209,4.0,15.0,73,0.00,,,0.00,0.000000,,2013-02-25 04:21:00,
2013-02-24 21:31:00,14.0,7.0,-100.00,SSW,209,4.0,15.0,73,0.00,,,0.00,0.000000,,2013-02-25 04:31:00,
2013-02-24 22:01:00,13.0,7.0,-100.00,South,187,3.0,9.0,77,0.00,,,0.00,0.000000,,2013-02-25 05:01:00,
2013-02-24 22:11:00,13.0,7.0,-100.00,South,187,3.0,9.0,77,0.00,,,0.00,0.000000,,2013-02-25 05:11:00,
2013-02-24 22:22:00,13.0,7.0,-100.00,South,187,3.0,9.0,77,0.00,,,0.00,0.000000,,2013-02-25 05:22:00,
2013-02-24 22:31:00,13.0,7.0,-100.00,South,187,3.0,9.0,77,0.00,,,0.00,0.000000,,2013-02-25 05:31:00,
2013-02-24 23:02:00,12.0,8.0,-100.00,SW,235,3.0,6.0,83,0.00,,,0.00,0.000000,,2013-02-25 06:02:00,
2013-02-24 23:11:00,12.0,8.0,-100.00,SW,235,3.0,6.0,83,0.00,,,0.00,0.000000,,2013-02-25 06:11:00,
2013-02-24 23:21:00,12.0,8.0,-100.00,SW,235,3.0,6.0,83,0.00,,,0.00,0.000000,,2013-02-25 06:21:00,
2013-02-24 23:31:00,12.0,8.0,-100.00,SW,235,3.0,6.0,83,0.00,,,0.00,0.000000,,2013-02-25 06:31:00,